Historique des mesures à Cassis (13260), France
Quotidien Résumé Novembre 5, 2017 Unités:  Métrique    US   Métrique/US
« Précédent (Jour)
Suivant (Jour) »
Quotidien Hebdomadaire Mensuel Annuel Période au choix
  Maximum: Minimum: Moyenne:
Température: TemperatureC °C 9.8 °C 13.1 °C
Point de rosée: DewpointC °C 1.7 °C 6.8 °C
Humidité: Humidity % 47 % 63 %
Vitesse du vent: 0 km/h 0 km/h 19.6 km/h
Rafales: 0 km/h - -
Vent:- - ESE
Pression: PressurehPa hPa 1003.6 hPa -
Précipitations: 29.5 mm    
Historical Graphs
 
 
Mesures pour : Novembre 5, 2017
Heure Temperature Point de rosée Pression Vent Vitesse du vent Rafales Humidité Pluie (par heure) Conditions
TemperatureC °C DewpointC °C PressurehPa hPa Calm     Humidity % HourlyPrecipMM mm SoftwareType W/m2
00:11 18.8 °C 11.6 °C 1005.6 hPa SE 14 km/h 14 km/h 63 % 0.0 mm open2300-1.11 W/m2
01:10 18.1 °C 12.3 °C 1003.9 hPa Calm   4.2 km/h 69 % 0.0 mm open2300-1.11 W/m2
02:11 14.3 °C 10.9 °C 1006.3 hPa Calm     80 % 20.8 mm open2300-1.11 W/m2
03:10 13.4 °C 10.7 °C 1004.3 hPa Calm     84 % 7.9 mm open2300-1.11 W/m2
05:10 13.9 °C 11.6 °C 1003.6 hPa Calm     86 % 0.0 mm open2300-1.11 W/m2
06:11 13.9 °C 11.6 °C 1003.9 hPa Calm     86 % 0.0 mm open2300-1.11 W/m2
07:10 13.9 °C 11.6 °C 1004.3 hPa Calm     86 % 0.0 mm open2300-1.11 W/m2
08:11 13.8 °C 11.3 °C 1005.3 hPa Calm     85 % 0.0 mm open2300-1.11 W/m2
09:10 13.9 °C 11.4 °C 1005.6 hPa Calm   9.8 km/h 85 % 0.0 mm open2300-1.11 W/m2
10:11 14.4 °C 11.6 °C 1005.6 hPa NNW 27.7 km/h 27.7 km/h 83 % 0.0 mm open2300-1.11 W/m2
11:10 14.9 °C 11.3 °C 1006.0 hPa NW 19.2 km/h 29.5 km/h 79 % 0.0 mm open2300-1.11 W/m2
12:11 14.8 °C 8.5 °C 1006.0 hPa North 31.4 km/h 36.5 km/h 66 % 0.0 mm open2300-1.11 W/m2
13:10 14.8 °C 6.1 °C 1006.0 hPa North 36 km/h 56.6 km/h 56 % 0.0 mm open2300-1.11 W/m2
14:11 13.8 °C 3.3 °C 1006.3 hPa North 39.4 km/h 45.4 km/h 49 % 0.0 mm open2300-1.11 W/m2
15:10 13.8 °C 3.3 °C 1006.3 hPa North 39.4 km/h 54.9 km/h 49 % 0.0 mm open2300-1.11 W/m2
16:11 13.5 °C 2.3 °C 1006.7 hPa NNE 34.8 km/h 45.9 km/h 47 % 0.0 mm open2300-1.11 W/m2
17:10 12.9 °C 2.1 °C 1006.7 hPa North 37 km/h 46.3 km/h 48 % 0.0 mm open2300-1.11 W/m2
18:11 12.3 °C 2.7 °C 1007.3 hPa NW 30.7 km/h 30.7 km/h 52 % 0.0 mm open2300-1.11 W/m2
19:10 12.1 °C 1.7 °C 1007.0 hPa NNW 49.7 km/h 49.7 km/h 49 % 0.0 mm open2300-1.11 W/m2
20:11 11.6 °C 2.1 °C 1007.7 hPa NW 30.7 km/h 30.7 km/h 52 % 0.0 mm open2300-1.11 W/m2
21:10 11.1 °C 1.8 °C 1008.0 hPa NNE 20.3 km/h 41.2 km/h 53 % 0.0 mm open2300-1.11 W/m2
22:11 10.6 °C 2.1 °C 1008.4 hPa North 37 km/h 51.5 km/h 56 % 0.0 mm open2300-1.11 W/m2
23:10 9.8 °C 1.9 °C 1007.7 hPa North 25.4 km/h 58.6 km/h 58 % 0.0 mm open2300-1.11 W/m2
Observations météo à CASSIS
WU-History script by Weather Underground - 1 mb